sensor_id;sensor_type;location;lat;lon;timestamp;P1;durP1;ratioP1;P2;durP2;ratioP2
7517;SDS011;3800;48.922;9.444;2023-04-15T00:01:57;7.67;;;5.83;;
7517;SDS011;3800;48.922;9.444;2023-04-15T00:04:23;6.90;;;5.33;;
7517;SDS011;3800;48.922;9.444;2023-04-15T00:06:52;7.37;;;5.50;;
7517;SDS011;3800;48.922;9.444;2023-04-15T00:09:20;7.23;;;5.80;;
7517;SDS011;3800;48.922;9.444;2023-04-15T00:11:49;6.27;;;5.67;;
7517;SDS011;3800;48.922;9.444;2023-04-15T00:14:16;7.20;;;6.13;;
7517;SDS011;3800;48.922;9.444;2023-04-15T00:16:45;9.43;;;6.87;;
7517;SDS011;3800;48.922;9.444;2023-04-15T00:19:13;10.23;;;7.37;;
7517;SDS011;3800;48.922;9.444;2023-04-15T00:21:41;8.73;;;7.17;;
7517;SDS011;3800;48.922;9.444;2023-04-15T00:24:09;8.87;;;7.53;;
7517;SDS011;3800;48.922;9.444;2023-04-15T00:26:38;8.73;;;7.67;;
7517;SDS011;3800;48.922;9.444;2023-04-15T00:29:07;9.53;;;7.50;;
7517;SDS011;3800;48.922;9.444;2023-04-15T00:31:36;8.57;;;7.23;;
7517;SDS011;3800;48.922;9.444;2023-04-15T00:34:04;8.53;;;7.27;;
7517;SDS011;3800;48.922;9.444;2023-04-15T00:36:32;9.73;;;7.07;;
7517;SDS011;3800;48.922;9.444;2023-04-15T00:39:00;9.93;;;7.40;;
7517;SDS011;3800;48.922;9.444;2023-04-15T00:41:29;10.90;;;7.63;;
7517;SDS011;3800;48.922;9.444;2023-04-15T00:43:57;10.03;;;7.83;;
7517;SDS011;3800;48.922;9.444;2023-04-15T00:46:26;9.67;;;8.03;;
7517;SDS011;3800;48.922;9.444;2023-04-15T00:48:53;10.07;;;8.07;;
7517;SDS011;3800;48.922;9.444;2023-04-15T00:51:22;8.20;;;7.37;;
7517;SDS011;3800;48.922;9.444;2023-04-15T00:53:50;9.60;;;7.70;;
7517;SDS011;3800;48.922;9.444;2023-04-15T00:56:19;8.63;;;7.73;;
7517;SDS011;3800;48.922;9.444;2023-04-15T00:58:46;9.67;;;7.53;;
7517;SDS011;3800;48.922;9.444;2023-04-15T01:01:15;8.57;;;7.67;;
7517;SDS011;3800;48.922;9.444;2023-04-15T01:03:43;9.60;;;7.73;;
7517;SDS011;3800;48.922;9.444;2023-04-15T01:06:11;8.70;;;7.57;;
7517;SDS011;3800;48.922;9.444;2023-04-15T01:08:40;7.87;;;6.97;;
7517;SDS011;3800;48.922;9.444;2023-04-15T01:11:08;7.77;;;6.60;;
7517;SDS011;3800;48.922;9.444;2023-04-15T01:13:37;9.73;;;6.03;;
7517;SDS011;3800;48.922;9.444;2023-04-15T01:16:05;7.50;;;5.83;;
7517;SDS011;3800;48.922;9.444;2023-04-15T01:18:35;8.23;;;6.37;;
7517;SDS011;3800;48.922;9.444;2023-04-15T01:21:04;9.03;;;6.20;;
7517;SDS011;3800;48.922;9.444;2023-04-15T01:23:31;7.10;;;6.40;;
7517;SDS011;3800;48.922;9.444;2023-04-15T01:25:59;8.50;;;6.43;;
7517;SDS011;3800;48.922;9.444;2023-04-15T01:28:27;9.73;;;7.07;;
7517;SDS011;3800;48.922;9.444;2023-04-15T01:33:34;8.20;;;7.23;;
7517;SDS011;3800;48.922;9.444;2023-04-15T01:36:03;7.77;;;6.97;;
7517;SDS011;3800;48.922;9.444;2023-04-15T01:38:32;10.03;;;6.63;;
7517;SDS011;3800;48.922;9.444;2023-04-15T01:41:00;11.37;;;6.10;;
7517;SDS011;3800;48.922;9.444;2023-04-15T01:43:28;6.30;;;5.57;;
7517;SDS011;3800;48.922;9.444;2023-04-15T01:45:56;7.77;;;5.80;;
7517;SDS011;3800;48.922;9.444;2023-04-15T01:48:25;10.07;;;5.87;;
7517;SDS011;3800;48.922;9.444;2023-04-15T01:50:54;6.10;;;5.13;;
7517;SDS011;3800;48.922;9.444;2023-04-15T01:53:22;6.70;;;5.20;;
7517;SDS011;3800;48.922;9.444;2023-04-15T01:55:51;6.77;;;5.23;;
7517;SDS011;3800;48.922;9.444;2023-04-15T01:58:20;5.83;;;5.00;;
7517;SDS011;3800;48.922;9.444;2023-04-15T02:00:48;5.93;;;5.13;;
7517;SDS011;3800;48.922;9.444;2023-04-15T02:03:16;6.60;;;5.60;;
7517;SDS011;3800;48.922;9.444;2023-04-15T02:05:45;5.87;;;5.07;;
7517;SDS011;3800;48.922;9.444;2023-04-15T02:08:13;7.00;;;5.50;;
7517;SDS011;3800;48.922;9.444;2023-04-15T02:10:41;5.73;;;5.17;;
7517;SDS011;3800;48.922;9.444;2023-04-15T02:13:09;8.83;;;6.07;;
7517;SDS011;3800;48.922;9.444;2023-04-15T02:15:38;8.70;;;5.83;;
7517;SDS011;3800;48.922;9.444;2023-04-15T02:18:06;8.13;;;6.20;;
7517;SDS011;3800;48.922;9.444;2023-04-15T02:20:34;6.23;;;5.43;;
7517;SDS011;3800;48.922;9.444;2023-04-15T02:23:02;6.77;;;5.90;;
7517;SDS011;3800;48.922;9.444;2023-04-15T02:25:31;6.20;;;5.57;;
7517;SDS011;3800;48.922;9.444;2023-04-15T02:27:59;9.30;;;6.17;;
7517;SDS011;3800;48.922;9.444;2023-04-15T02:30:27;8.10;;;6.20;;
7517;SDS011;3800;48.922;9.444;2023-04-15T02:32:56;6.07;;;5.40;;
7517;SDS011;3800;48.922;9.444;2023-04-15T02:35:24;6.40;;;5.60;;
7517;SDS011;3800;48.922;9.444;2023-04-15T02:37:53;6.97;;;6.07;;
7517;SDS011;3800;48.922;9.444;2023-04-15T02:40:21;7.30;;;6.23;;
7517;SDS011;3800;48.922;9.444;2023-04-15T02:42:49;7.73;;;6.37;;
7517;SDS011;3800;48.922;9.444;2023-04-15T02:45:17;6.73;;;6.00;;
7517;SDS011;3800;48.922;9.444;2023-04-15T02:47:46;7.17;;;6.03;;
7517;SDS011;3800;48.922;9.444;2023-04-15T02:50:15;6.77;;;5.97;;
7517;SDS011;3800;48.922;9.444;2023-04-15T02:52:43;7.23;;;5.47;;
7517;SDS011;3800;48.922;9.444;2023-04-15T02:55:11;6.03;;;5.43;;
7517;SDS011;3800;48.922;9.444;2023-04-15T02:57:39;6.43;;;5.40;;
7517;SDS011;3800;48.922;9.444;2023-04-15T03:00:08;6.37;;;5.77;;
7517;SDS011;3800;48.922;9.444;2023-04-15T03:02:37;7.40;;;5.90;;
7517;SDS011;3800;48.922;9.444;2023-04-15T03:05:05;6.73;;;6.13;;
7517;SDS011;3800;48.922;9.444;2023-04-15T03:07:34;6.53;;;5.50;;
7517;SDS011;3800;48.922;9.444;2023-04-15T03:10:02;7.50;;;5.67;;
7517;SDS011;3800;48.922;9.444;2023-04-15T03:12:31;7.73;;;5.30;;
7517;SDS011;3800;48.922;9.444;2023-04-15T03:14:59;6.23;;;5.63;;
7517;SDS011;3800;48.922;9.444;2023-04-15T03:17:27;7.70;;;5.70;;
7517;SDS011;3800;48.922;9.444;2023-04-15T03:19:56;7.40;;;5.77;;
7517;SDS011;3800;48.922;9.444;2023-04-15T03:22:25;7.73;;;5.70;;
7517;SDS011;3800;48.922;9.444;2023-04-15T03:24:53;6.50;;;5.73;;
7517;SDS011;3800;48.922;9.444;2023-04-15T03:27:21;7.13;;;5.77;;
7517;SDS011;3800;48.922;9.444;2023-04-15T03:29:49;10.97;;;6.20;;
7517;SDS011;3800;48.922;9.444;2023-04-15T03:32:18;6.37;;;5.77;;
7517;SDS011;3800;48.922;9.444;2023-04-15T03:34:46;9.27;;;6.20;;
7517;SDS011;3800;48.922;9.444;2023-04-15T03:37:14;8.77;;;6.00;;
7517;SDS011;3800;48.922;9.444;2023-04-15T03:39:43;6.77;;;5.90;;
7517;SDS011;3800;48.922;9.444;2023-04-15T03:42:11;7.27;;;5.60;;
7517;SDS011;3800;48.922;9.444;2023-04-15T03:44:40;7.17;;;5.67;;
7517;SDS011;3800;48.922;9.444;2023-04-15T03:47:08;7.93;;;5.50;;
7517;SDS011;3800;48.922;9.444;2023-04-15T03:49:36;7.00;;;5.63;;
7517;SDS011;3800;48.922;9.444;2023-04-15T03:52:04;6.40;;;5.80;;
7517;SDS011;3800;48.922;9.444;2023-04-15T03:54:33;9.07;;;5.40;;
7517;SDS011;3800;48.922;9.444;2023-04-15T03:57:01;6.43;;;5.83;;
7517;SDS011;3800;48.922;9.444;2023-04-15T03:59:29;6.03;;;5.30;;
7517;SDS011;3800;48.922;9.444;2023-04-15T04:01:57;6.47;;;5.33;;
7517;SDS011;3800;48.922;9.444;2023-04-15T04:04:26;7.93;;;5.60;;
7517;SDS011;3800;48.922;9.444;2023-04-15T04:06:55;7.23;;;5.33;;
7517;SDS011;3800;48.922;9.444;2023-04-15T04:09:23;7.83;;;5.43;;
7517;SDS011;3800;48.922;9.444;2023-04-15T04:11:51;5.37;;;4.70;;
7517;SDS011;3800;48.922;9.444;2023-04-15T04:14:19;6.23;;;5.30;;
7517;SDS011;3800;48.922;9.444;2023-04-15T04:16:48;6.83;;;5.20;;
7517;SDS011;3800;48.922;9.444;2023-04-15T04:19:16;6.70;;;5.73;;
7517;SDS011;3800;48.922;9.444;2023-04-15T04:21:44;7.10;;;5.43;;
7517;SDS011;3800;48.922;9.444;2023-04-15T04:24:12;6.00;;;5.50;;
7517;SDS011;3800;48.922;9.444;2023-04-15T04:26:41;6.60;;;5.87;;
7517;SDS011;3800;48.922;9.444;2023-04-15T04:29:09;6.23;;;5.63;;
7517;SDS011;3800;48.922;9.444;2023-04-15T04:31:37;6.27;;;5.43;;
7517;SDS011;3800;48.922;9.444;2023-04-15T04:34:06;6.80;;;5.83;;
7517;SDS011;3800;48.922;9.444;2023-04-15T04:36:34;7.87;;;5.30;;
7517;SDS011;3800;48.922;9.444;2023-04-15T04:39:03;5.63;;;5.10;;
7517;SDS011;3800;48.922;9.444;2023-04-15T04:41:31;6.00;;;5.40;;
7517;SDS011;3800;48.922;9.444;2023-04-15T04:43:59;6.07;;;4.90;;
7517;SDS011;3800;48.922;9.444;2023-04-15T04:46:27;5.53;;;4.97;;
7517;SDS011;3800;48.922;9.444;2023-04-15T04:48:56;10.47;;;5.63;;
7517;SDS011;3800;48.922;9.444;2023-04-15T04:51:24;6.83;;;5.63;;
7517;SDS011;3800;48.922;9.444;2023-04-15T04:53:53;6.30;;;5.70;;
7517;SDS011;3800;48.922;9.444;2023-04-15T04:56:21;6.37;;;5.60;;
7517;SDS011;3800;48.922;9.444;2023-04-15T04:58:49;6.53;;;5.93;;
7517;SDS011;3800;48.922;9.444;2023-04-15T05:01:18;6.83;;;6.10;;
7517;SDS011;3800;48.922;9.444;2023-04-15T05:03:46;8.20;;;6.60;;
7517;SDS011;3800;48.922;9.444;2023-04-15T05:06:14;9.33;;;6.80;;
7517;SDS011;3800;48.922;9.444;2023-04-15T05:08:42;8.93;;;7.30;;
7517;SDS011;3800;48.922;9.444;2023-04-15T05:11:11;8.80;;;6.97;;
7517;SDS011;3800;48.922;9.444;2023-04-15T05:13:39;9.23;;;6.80;;
7517;SDS011;3800;48.922;9.444;2023-04-15T05:16:07;9.43;;;7.20;;
7517;SDS011;3800;48.922;9.444;2023-04-15T05:18:35;9.77;;;6.33;;
7517;SDS011;3800;48.922;9.444;2023-04-15T05:21:04;6.67;;;5.73;;
7517;SDS011;3800;48.922;9.444;2023-04-15T05:23:32;6.50;;;5.80;;
7517;SDS011;3800;48.922;9.444;2023-04-15T05:26:00;8.03;;;6.17;;
7517;SDS011;3800;48.922;9.444;2023-04-15T05:28:29;10.03;;;5.60;;
7517;SDS011;3800;48.922;9.444;2023-04-15T05:30:57;17.83;;;6.33;;
7517;SDS011;3800;48.922;9.444;2023-04-15T05:33:26;8.80;;;5.03;;
7517;SDS011;3800;48.922;9.444;2023-04-15T05:35:54;6.70;;;5.17;;
7517;SDS011;3800;48.922;9.444;2023-04-15T05:38:22;7.33;;;5.40;;
7517;SDS011;3800;48.922;9.444;2023-04-15T05:40:51;7.07;;;4.40;;
7517;SDS011;3800;48.922;9.444;2023-04-15T05:43:20;7.53;;;4.80;;
7517;SDS011;3800;48.922;9.444;2023-04-15T05:45:49;6.17;;;5.13;;
7517;SDS011;3800;48.922;9.444;2023-04-15T05:48:17;7.53;;;5.00;;
7517;SDS011;3800;48.922;9.444;2023-04-15T05:50:45;7.17;;;5.20;;
7517;SDS011;3800;48.922;9.444;2023-04-15T05:53:13;5.47;;;4.97;;
7517;SDS011;3800;48.922;9.444;2023-04-15T05:55:42;6.13;;;5.33;;
7517;SDS011;3800;48.922;9.444;2023-04-15T05:58:10;8.63;;;5.80;;
7517;SDS011;3800;48.922;9.444;2023-04-15T06:00:39;8.30;;;6.47;;
7517;SDS011;3800;48.922;9.444;2023-04-15T06:03:07;10.13;;;6.67;;
7517;SDS011;3800;48.922;9.444;2023-04-15T06:05:35;8.73;;;6.57;;
7517;SDS011;3800;48.922;9.444;2023-04-15T06:08:04;10.30;;;7.07;;
7517;SDS011;3800;48.922;9.444;2023-04-15T06:10:33;10.90;;;6.70;;
7517;SDS011;3800;48.922;9.444;2023-04-15T06:13:02;11.70;;;7.27;;
7517;SDS011;3800;48.922;9.444;2023-04-15T06:15:29;11.63;;;7.57;;
7517;SDS011;3800;48.922;9.444;2023-04-15T06:17:58;10.10;;;7.00;;
7517;SDS011;3800;48.922;9.444;2023-04-15T06:20:26;7.90;;;6.97;;
7517;SDS011;3800;48.922;9.444;2023-04-15T06:22:54;7.53;;;6.37;;
7517;SDS011;3800;48.922;9.444;2023-04-15T06:25:22;8.80;;;6.23;;
7517;SDS011;3800;48.922;9.444;2023-04-15T06:27:50;7.67;;;6.63;;
7517;SDS011;3800;48.922;9.444;2023-04-15T06:30:19;8.33;;;6.43;;
7517;SDS011;3800;48.922;9.444;2023-04-15T06:32:47;8.83;;;6.33;;
7517;SDS011;3800;48.922;9.444;2023-04-15T06:35:16;7.97;;;6.67;;
7517;SDS011;3800;48.922;9.444;2023-04-15T06:37:45;7.43;;;6.20;;
7517;SDS011;3800;48.922;9.444;2023-04-15T06:40:13;7.17;;;6.30;;
7517;SDS011;3800;48.922;9.444;2023-04-15T06:42:41;7.90;;;5.97;;
7517;SDS011;3800;48.922;9.444;2023-04-15T06:45:10;7.17;;;6.10;;
7517;SDS011;3800;48.922;9.444;2023-04-15T06:47:38;9.67;;;5.70;;
7517;SDS011;3800;48.922;9.444;2023-04-15T06:50:07;8.67;;;5.90;;
7517;SDS011;3800;48.922;9.444;2023-04-15T06:52:35;6.53;;;5.17;;
7517;SDS011;3800;48.922;9.444;2023-04-15T06:55:04;10.43;;;6.17;;
7517;SDS011;3800;48.922;9.444;2023-04-15T06:57:33;6.43;;;5.53;;
7517;SDS011;3800;48.922;9.444;2023-04-15T07:00:01;8.17;;;6.13;;
7517;SDS011;3800;48.922;9.444;2023-04-15T07:02:30;8.07;;;6.00;;
7517;SDS011;3800;48.922;9.444;2023-04-15T07:04:58;6.20;;;5.57;;
7517;SDS011;3800;48.922;9.444;2023-04-15T07:07:26;5.43;;;4.93;;
7517;SDS011;3800;48.922;9.444;2023-04-15T07:09:55;7.00;;;5.37;;
7517;SDS011;3800;48.922;9.444;2023-04-15T07:12:23;6.33;;;5.60;;
7517;SDS011;3800;48.922;9.444;2023-04-15T07:14:51;7.90;;;5.47;;
7517;SDS011;3800;48.922;9.444;2023-04-15T07:17:20;5.40;;;4.90;;
7517;SDS011;3800;48.922;9.444;2023-04-15T07:19:48;5.60;;;4.90;;
7517;SDS011;3800;48.922;9.444;2023-04-15T07:22:16;9.83;;;5.00;;
7517;SDS011;3800;48.922;9.444;2023-04-15T07:24:44;5.50;;;4.77;;
7517;SDS011;3800;48.922;9.444;2023-04-15T07:27:12;6.70;;;5.13;;
7517;SDS011;3800;48.922;9.444;2023-04-15T07:29:41;5.40;;;4.90;;
7517;SDS011;3800;48.922;9.444;2023-04-15T07:32:10;8.43;;;5.93;;
7517;SDS011;3800;48.922;9.444;2023-04-15T07:34:39;6.10;;;5.13;;
7517;SDS011;3800;48.922;9.444;2023-04-15T07:37:08;5.53;;;4.77;;
7517;SDS011;3800;48.922;9.444;2023-04-15T07:39:36;6.90;;;5.23;;
7517;SDS011;3800;48.922;9.444;2023-04-15T07:42:04;8.80;;;5.40;;
7517;SDS011;3800;48.922;9.444;2023-04-15T07:44:32;9.47;;;5.27;;
7517;SDS011;3800;48.922;9.444;2023-04-15T07:47:01;5.87;;;5.23;;
7517;SDS011;3800;48.922;9.444;2023-04-15T07:49:30;8.83;;;6.90;;
7517;SDS011;3800;48.922;9.444;2023-04-15T07:51:58;8.83;;;5.17;;
7517;SDS011;3800;48.922;9.444;2023-04-15T07:54:26;9.50;;;5.53;;
7517;SDS011;3800;48.922;9.444;2023-04-15T07:56:54;5.73;;;4.90;;
7517;SDS011;3800;48.922;9.444;2023-04-15T07:59:23;7.97;;;4.60;;
7517;SDS011;3800;48.922;9.444;2023-04-15T08:01:51;6.47;;;4.37;;
7517;SDS011;3800;48.922;9.444;2023-04-15T08:04:19;7.00;;;4.50;;
7517;SDS011;3800;48.922;9.444;2023-04-15T08:06:47;4.60;;;3.90;;
7517;SDS011;3800;48.922;9.444;2023-04-15T08:09:16;6.63;;;4.00;;
7517;SDS011;3800;48.922;9.444;2023-04-15T08:11:44;9.10;;;4.23;;
7517;SDS011;3800;48.922;9.444;2023-04-15T08:14:12;8.23;;;4.13;;
7517;SDS011;3800;48.922;9.444;2023-04-15T08:16:40;6.93;;;4.17;;
7517;SDS011;3800;48.922;9.444;2023-04-15T08:19:09;8.47;;;4.53;;
7517;SDS011;3800;48.922;9.444;2023-04-15T08:21:37;7.03;;;4.50;;
7517;SDS011;3800;48.922;9.444;2023-04-15T08:24:05;4.70;;;4.27;;
7517;SDS011;3800;48.922;9.444;2023-04-15T08:26:33;5.63;;;4.47;;
7517;SDS011;3800;48.922;9.444;2023-04-15T08:29:02;6.60;;;4.70;;
7517;SDS011;3800;48.922;9.444;2023-04-15T08:31:30;7.13;;;4.83;;
7517;SDS011;3800;48.922;9.444;2023-04-15T08:33:58;6.50;;;4.63;;
7517;SDS011;3800;48.922;9.444;2023-04-15T08:36:26;7.63;;;4.80;;
7517;SDS011;3800;48.922;9.444;2023-04-15T08:38:55;7.20;;;4.63;;
7517;SDS011;3800;48.922;9.444;2023-04-15T08:41:24;6.27;;;4.97;;
7517;SDS011;3800;48.922;9.444;2023-04-15T08:43:53;6.50;;;4.73;;
7517;SDS011;3800;48.922;9.444;2023-04-15T08:46:23;5.13;;;4.10;;
7517;SDS011;3800;48.922;9.444;2023-04-15T08:48:51;7.63;;;3.60;;
7517;SDS011;3800;48.922;9.444;2023-04-15T08:51:20;7.77;;;3.70;;
7517;SDS011;3800;48.922;9.444;2023-04-15T08:53:49;8.50;;;4.40;;
7517;SDS011;3800;48.922;9.444;2023-04-15T08:56:17;4.83;;;3.57;;
7517;SDS011;3800;48.922;9.444;2023-04-15T08:58:45;5.73;;;3.93;;
7517;SDS011;3800;48.922;9.444;2023-04-15T09:01:13;5.13;;;3.90;;
7517;SDS011;3800;48.922;9.444;2023-04-15T09:03:42;6.73;;;4.23;;
7517;SDS011;3800;48.922;9.444;2023-04-15T09:06:10;5.20;;;3.83;;
7517;SDS011;3800;48.922;9.444;2023-04-15T09:08:38;9.40;;;4.00;;
7517;SDS011;3800;48.922;9.444;2023-04-15T09:11:07;8.73;;;4.47;;
7517;SDS011;3800;48.922;9.444;2023-04-15T09:13:35;4.00;;;3.57;;
7517;SDS011;3800;48.922;9.444;2023-04-15T09:16:04;5.93;;;3.90;;
7517;SDS011;3800;48.922;9.444;2023-04-15T09:18:33;7.53;;;3.83;;
7517;SDS011;3800;48.922;9.444;2023-04-15T09:21:03;4.73;;;3.50;;
7517;SDS011;3800;48.922;9.444;2023-04-15T09:23:32;6.10;;;3.63;;
7517;SDS011;3800;48.922;9.444;2023-04-15T09:26:01;6.87;;;4.00;;
7517;SDS011;3800;48.922;9.444;2023-04-15T09:28:29;3.87;;;3.13;;
7517;SDS011;3800;48.922;9.444;2023-04-15T09:30:58;4.93;;;3.37;;
7517;SDS011;3800;48.922;9.444;2023-04-15T09:33:27;4.93;;;3.00;;
7517;SDS011;3800;48.922;9.444;2023-04-15T09:35:56;7.00;;;3.50;;
7517;SDS011;3800;48.922;9.444;2023-04-15T09:38:27;4.27;;;2.90;;
7517;SDS011;3800;48.922;9.444;2023-04-15T09:40:55;6.37;;;3.10;;
7517;SDS011;3800;48.922;9.444;2023-04-15T09:46:03;3.90;;;3.00;;
7517;SDS011;3800;48.922;9.444;2023-04-15T09:48:32;5.17;;;3.03;;
7517;SDS011;3800;48.922;9.444;2023-04-15T09:51:00;5.10;;;3.10;;
7517;SDS011;3800;48.922;9.444;2023-04-15T09:53:28;4.10;;;2.40;;
7517;SDS011;3800;48.922;9.444;2023-04-15T09:55:58;3.60;;;2.63;;
7517;SDS011;3800;48.922;9.444;2023-04-15T09:58:29;4.57;;;2.70;;
7517;SDS011;3800;48.922;9.444;2023-04-15T10:00:57;5.07;;;2.70;;
7517;SDS011;3800;48.922;9.444;2023-04-15T10:03:25;4.90;;;3.00;;
7517;SDS011;3800;48.922;9.444;2023-04-15T10:05:55;3.43;;;2.77;;
7517;SDS011;3800;48.922;9.444;2023-04-15T10:08:24;4.23;;;2.70;;
7517;SDS011;3800;48.922;9.444;2023-04-15T10:10:51;6.90;;;3.07;;
7517;SDS011;3800;48.922;9.444;2023-04-15T10:13:21;5.23;;;3.57;;
7517;SDS011;3800;48.922;9.444;2023-04-15T10:15:55;4.37;;;3.07;;
7517;SDS011;3800;48.922;9.444;2023-04-15T10:18:25;5.03;;;3.10;;
7517;SDS011;3800;48.922;9.444;2023-04-15T10:20:52;5.30;;;3.20;;
7517;SDS011;3800;48.922;9.444;2023-04-15T10:23:21;6.13;;;3.10;;
7517;SDS011;3800;48.922;9.444;2023-04-15T10:25:49;3.97;;;2.70;;
7517;SDS011;3800;48.922;9.444;2023-04-15T10:28:17;6.00;;;3.27;;
7517;SDS011;3800;48.922;9.444;2023-04-15T10:30:45;5.67;;;3.03;;
7517;SDS011;3800;48.922;9.444;2023-04-15T10:33:13;6.27;;;3.17;;
7517;SDS011;3800;48.922;9.444;2023-04-15T10:35:42;5.83;;;3.30;;
7517;SDS011;3800;48.922;9.444;2023-04-15T10:41:11;3.70;;;3.10;;
7517;SDS011;3800;48.922;9.444;2023-04-15T10:43:39;4.40;;;3.00;;
7517;SDS011;3800;48.922;9.444;2023-04-15T10:46:07;5.40;;;3.30;;
7517;SDS011;3800;48.922;9.444;2023-04-15T10:48:36;7.67;;;3.00;;
7517;SDS011;3800;48.922;9.444;2023-04-15T10:51:04;5.37;;;3.10;;
7517;SDS011;3800;48.922;9.444;2023-04-15T10:53:32;5.47;;;3.27;;
7517;SDS011;3800;48.922;9.444;2023-04-15T10:56:01;5.10;;;3.50;;
7517;SDS011;3800;48.922;9.444;2023-04-15T10:58:29;5.00;;;3.60;;
7517;SDS011;3800;48.922;9.444;2023-04-15T11:00:57;3.97;;;3.57;;
7517;SDS011;3800;48.922;9.444;2023-04-15T11:06:04;4.27;;;3.30;;
7517;SDS011;3800;48.922;9.444;2023-04-15T11:11:18;6.47;;;3.60;;
7517;SDS011;3800;48.922;9.444;2023-04-15T11:13:48;6.17;;;3.40;;
7517;SDS011;3800;48.922;9.444;2023-04-15T11:16:16;4.43;;;3.30;;
7517;SDS011;3800;48.922;9.444;2023-04-15T11:21:20;6.00;;;3.77;;
7517;SDS011;3800;48.922;9.444;2023-04-15T11:23:48;5.27;;;3.20;;
7517;SDS011;3800;48.922;9.444;2023-04-15T11:26:16;5.13;;;3.43;;
7517;SDS011;3800;48.922;9.444;2023-04-15T11:28:44;5.87;;;3.30;;
7517;SDS011;3800;48.922;9.444;2023-04-15T11:31:13;4.90;;;3.80;;
7517;SDS011;3800;48.922;9.444;2023-04-15T11:34:01;6.07;;;3.50;;
7517;SDS011;3800;48.922;9.444;2023-04-15T11:36:29;5.10;;;3.50;;
7517;SDS011;3800;48.922;9.444;2023-04-15T11:38:57;6.43;;;3.97;;
7517;SDS011;3800;48.922;9.444;2023-04-15T11:41:24;6.37;;;3.60;;
7517;SDS011;3800;48.922;9.444;2023-04-15T11:43:52;7.70;;;4.00;;
7517;SDS011;3800;48.922;9.444;2023-04-15T11:46:27;3.93;;;3.37;;
7517;SDS011;3800;48.922;9.444;2023-04-15T11:48:50;5.77;;;3.70;;
7517;SDS011;3800;48.922;9.444;2023-04-15T11:51:18;5.00;;;3.53;;
7517;SDS011;3800;48.922;9.444;2023-04-15T11:53:47;7.07;;;3.57;;
7517;SDS011;3800;48.922;9.444;2023-04-15T11:56:19;7.40;;;3.50;;
7517;SDS011;3800;48.922;9.444;2023-04-15T11:58:47;3.20;;;2.90;;
7517;SDS011;3800;48.922;9.444;2023-04-15T12:01:16;3.00;;;2.70;;
7517;SDS011;3800;48.922;9.444;2023-04-15T12:03:45;5.07;;;3.40;;
7517;SDS011;3800;48.922;9.444;2023-04-15T12:06:15;4.60;;;3.00;;
7517;SDS011;3800;48.922;9.444;2023-04-15T12:09:08;3.40;;;2.73;;
7517;SDS011;3800;48.922;9.444;2023-04-15T12:11:37;4.63;;;2.50;;
7517;SDS011;3800;48.922;9.444;2023-04-15T12:14:10;6.10;;;3.10;;
7517;SDS011;3800;48.922;9.444;2023-04-15T12:16:44;4.60;;;3.20;;
7517;SDS011;3800;48.922;9.444;2023-04-15T12:19:12;5.27;;;3.10;;
7517;SDS011;3800;48.922;9.444;2023-04-15T12:21:42;4.10;;;2.87;;
7517;SDS011;3800;48.922;9.444;2023-04-15T12:24:10;3.83;;;3.10;;
7517;SDS011;3800;48.922;9.444;2023-04-15T12:26:46;4.00;;;3.43;;
7517;SDS011;3800;48.922;9.444;2023-04-15T12:29:15;4.07;;;3.20;;
7517;SDS011;3800;48.922;9.444;2023-04-15T12:31:46;6.57;;;3.87;;
7517;SDS011;3800;48.922;9.444;2023-04-15T12:34:17;5.03;;;3.27;;
7517;SDS011;3800;48.922;9.444;2023-04-15T12:36:45;4.73;;;3.20;;
7517;SDS011;3800;48.922;9.444;2023-04-15T12:39:14;2.37;;;2.10;;
7517;SDS011;3800;48.922;9.444;2023-04-15T12:41:42;3.73;;;2.07;;
7517;SDS011;3800;48.922;9.444;2023-04-15T12:44:10;4.17;;;2.37;;
7517;SDS011;3800;48.922;9.444;2023-04-15T12:46:38;2.27;;;1.90;;
7517;SDS011;3800;48.922;9.444;2023-04-15T12:49:07;2.97;;;2.03;;
7517;SDS011;3800;48.922;9.444;2023-04-15T12:51:35;3.70;;;2.17;;
7517;SDS011;3800;48.922;9.444;2023-04-15T12:54:04;3.50;;;2.63;;
7517;SDS011;3800;48.922;9.444;2023-04-15T12:56:32;3.10;;;2.07;;
7517;SDS011;3800;48.922;9.444;2023-04-15T12:59:00;5.93;;;3.80;;
7517;SDS011;3800;48.922;9.444;2023-04-15T13:01:29;6.90;;;5.17;;
7517;SDS011;3800;48.922;9.444;2023-04-15T13:03:57;4.37;;;2.73;;
7517;SDS011;3800;48.922;9.444;2023-04-15T13:06:25;3.73;;;2.80;;
7517;SDS011;3800;48.922;9.444;2023-04-15T13:08:54;3.07;;;2.70;;
7517;SDS011;3800;48.922;9.444;2023-04-15T13:11:23;4.73;;;2.47;;
7517;SDS011;3800;48.922;9.444;2023-04-15T13:13:51;1.37;;;1.27;;
7517;SDS011;3800;48.922;9.444;2023-04-15T13:16:20;1.87;;;1.50;;
7517;SDS011;3800;48.922;9.444;2023-04-15T13:18:49;5.87;;;4.00;;
7517;SDS011;3800;48.922;9.444;2023-04-15T13:21:17;7.50;;;3.50;;
7517;SDS011;3800;48.922;9.444;2023-04-15T13:23:45;3.63;;;2.27;;
7517;SDS011;3800;48.922;9.444;2023-04-15T13:26:14;2.30;;;1.60;;
7517;SDS011;3800;48.922;9.444;2023-04-15T13:28:42;3.00;;;1.60;;
7517;SDS011;3800;48.922;9.444;2023-04-15T13:31:10;2.63;;;1.60;;
7517;SDS011;3800;48.922;9.444;2023-04-15T13:33:38;2.47;;;1.60;;
7517;SDS011;3800;48.922;9.444;2023-04-15T13:36:07;2.67;;;1.30;;
7517;SDS011;3800;48.922;9.444;2023-04-15T13:38:35;1.83;;;1.40;;
7517;SDS011;3800;48.922;9.444;2023-04-15T13:41:03;1.77;;;1.40;;
7517;SDS011;3800;48.922;9.444;2023-04-15T13:43:32;1.50;;;1.40;;
7517;SDS011;3800;48.922;9.444;2023-04-15T13:46:01;2.03;;;1.87;;
7517;SDS011;3800;48.922;9.444;2023-04-15T13:48:29;2.20;;;1.77;;
7517;SDS011;3800;48.922;9.444;2023-04-15T13:50:57;3.90;;;1.70;;
7517;SDS011;3800;48.922;9.444;2023-04-15T13:53:25;3.73;;;2.33;;
7517;SDS011;3800;48.922;9.444;2023-04-15T13:55:54;2.80;;;2.40;;
7517;SDS011;3800;48.922;9.444;2023-04-15T13:58:22;3.63;;;2.00;;
7517;SDS011;3800;48.922;9.444;2023-04-15T14:00:50;2.47;;;1.40;;
7517;SDS011;3800;48.922;9.444;2023-04-15T14:03:19;2.87;;;1.70;;
7517;SDS011;3800;48.922;9.444;2023-04-15T14:05:48;2.30;;;1.57;;
7517;SDS011;3800;48.922;9.444;2023-04-15T14:08:17;2.40;;;1.50;;
7517;SDS011;3800;48.922;9.444;2023-04-15T14:10:46;1.80;;;1.70;;
7517;SDS011;3800;48.922;9.444;2023-04-15T14:13:14;2.30;;;1.73;;
7517;SDS011;3800;48.922;9.444;2023-04-15T14:15:42;2.67;;;1.70;;
7517;SDS011;3800;48.922;9.444;2023-04-15T14:18:11;2.43;;;1.83;;
7517;SDS011;3800;48.922;9.444;2023-04-15T14:20:39;2.63;;;1.80;;
7517;SDS011;3800;48.922;9.444;2023-04-15T14:23:07;2.00;;;1.53;;
7517;SDS011;3800;48.922;9.444;2023-04-15T14:25:35;2.17;;;1.50;;
7517;SDS011;3800;48.922;9.444;2023-04-15T14:28:04;1.73;;;1.63;;
7517;SDS011;3800;48.922;9.444;2023-04-15T14:30:32;2.40;;;1.40;;
7517;SDS011;3800;48.922;9.444;2023-04-15T14:33:01;1.60;;;1.50;;
7517;SDS011;3800;48.922;9.444;2023-04-15T14:35:29;1.77;;;1.47;;
7517;SDS011;3800;48.922;9.444;2023-04-15T14:37:57;4.03;;;1.60;;
7517;SDS011;3800;48.922;9.444;2023-04-15T14:40:26;4.10;;;1.70;;
7517;SDS011;3800;48.922;9.444;2023-04-15T14:42:55;3.87;;;1.80;;
7517;SDS011;3800;48.922;9.444;2023-04-15T14:45:23;3.13;;;1.70;;
7517;SDS011;3800;48.922;9.444;2023-04-15T14:47:51;4.23;;;1.60;;
7517;SDS011;3800;48.922;9.444;2023-04-15T14:50:21;2.10;;;1.63;;
7517;SDS011;3800;48.922;9.444;2023-04-15T14:52:50;2.63;;;1.73;;
7517;SDS011;3800;48.922;9.444;2023-04-15T14:55:18;1.90;;;1.60;;
7517;SDS011;3800;48.922;9.444;2023-04-15T14:57:47;2.20;;;1.40;;
7517;SDS011;3800;48.922;9.444;2023-04-15T15:00:15;1.70;;;1.60;;
7517;SDS011;3800;48.922;9.444;2023-04-15T15:02:43;2.70;;;2.03;;
7517;SDS011;3800;48.922;9.444;2023-04-15T15:05:12;2.43;;;1.90;;
7517;SDS011;3800;48.922;9.444;2023-04-15T15:07:40;2.83;;;1.63;;
7517;SDS011;3800;48.922;9.444;2023-04-15T15:10:09;2.13;;;1.70;;
7517;SDS011;3800;48.922;9.444;2023-04-15T15:12:37;2.60;;;2.07;;
7517;SDS011;3800;48.922;9.444;2023-04-15T15:15:05;2.67;;;2.00;;
7517;SDS011;3800;48.922;9.444;2023-04-15T15:17:34;2.93;;;1.53;;
7517;SDS011;3800;48.922;9.444;2023-04-15T15:20:03;4.07;;;1.60;;
7517;SDS011;3800;48.922;9.444;2023-04-15T15:22:33;2.20;;;1.60;;
7517;SDS011;3800;48.922;9.444;2023-04-15T15:25:01;2.17;;;1.57;;
7517;SDS011;3800;48.922;9.444;2023-04-15T15:27:30;2.10;;;1.60;;
7517;SDS011;3800;48.922;9.444;2023-04-15T15:29:58;1.77;;;1.60;;
7517;SDS011;3800;48.922;9.444;2023-04-15T15:32:27;1.70;;;1.53;;
7517;SDS011;3800;48.922;9.444;2023-04-15T15:34:56;2.07;;;1.30;;
7517;SDS011;3800;48.922;9.444;2023-04-15T15:37:24;2.27;;;1.80;;
7517;SDS011;3800;48.922;9.444;2023-04-15T15:39:52;1.83;;;1.53;;